Hoytville, Ohio
Current Conditions -  °F | °C
As of 4:43 AM on Thursday 27 Nov 2014 (Local Time) from KFDY Reporting Station
Overcast Overcast  
Wind Chill: 22°   Ceiling: 2400
Heat Index: 31°   Visibility: 9mi
Dew Point: 25°   Wind: 10mph
Humidity: 79%   Direction: 330°NNW
Pressure: 30.09"   Gusts: NA
Location:  41.19°N, 83.78°W
Report Text: KFDY 270943Z AUTO 33009KT 9SM BKN024 OVC032 M01/M04 A3009 RMK AO2 T10061039
Loading
Personal Weather Stations






























Interactive Weather Map New forecast layout! Learn more

10-Day Weather Forecast

Advertisements
Track Severe Weather on mobile